sensor_id;sensor_type;location;lat;lon;timestamp;temperature;humidity
79571;DHT22;69034;49.444;7.758;2024-02-21T00:00:07;11.30;63.50
79571;DHT22;69034;49.444;7.758;2024-02-21T00:04:07;11.20;63.50
79571;DHT22;69034;49.444;7.758;2024-02-21T00:08:08;11.20;63.60
79571;DHT22;69034;49.444;7.758;2024-02-21T00:12:09;11.20;63.70
79571;DHT22;69034;49.444;7.758;2024-02-21T00:16:09;11.20;63.70
79571;DHT22;69034;49.444;7.758;2024-02-21T00:20:11;11.10;63.80
79571;DHT22;69034;49.444;7.758;2024-02-21T00:24:12;11.10;63.80
79571;DHT22;69034;49.444;7.758;2024-02-21T00:28:12;11.10;63.90
79571;DHT22;69034;49.444;7.758;2024-02-21T00:32:13;11.20;63.90
79571;DHT22;69034;49.444;7.758;2024-02-21T00:36:14;11.10;63.90
79571;DHT22;69034;49.444;7.758;2024-02-21T00:40:15;11.10;64.00
79571;DHT22;69034;49.444;7.758;2024-02-21T00:44:20;11.10;64.10
79571;DHT22;69034;49.444;7.758;2024-02-21T00:48:20;11.10;64.20
79571;DHT22;69034;49.444;7.758;2024-02-21T00:52:21;11.00;64.30
79571;DHT22;69034;49.444;7.758;2024-02-21T00:56:22;11.00;64.20
79571;DHT22;69034;49.444;7.758;2024-02-21T01:00:22;11.00;64.30
79571;DHT22;69034;49.444;7.758;2024-02-21T01:04:23;11.00;64.30
79571;DHT22;69034;49.444;7.758;2024-02-21T01:08:25;11.00;64.40
79571;DHT22;69034;49.444;7.758;2024-02-21T01:12:25;10.90;64.40
79571;DHT22;69034;49.444;7.758;2024-02-21T01:16:26;10.90;64.40
79571;DHT22;69034;49.444;7.758;2024-02-21T01:20:27;10.90;64.40
79571;DHT22;69034;49.444;7.758;2024-02-21T01:24:27;10.90;64.50
79571;DHT22;69034;49.444;7.758;2024-02-21T01:28:28;10.80;64.50
79571;DHT22;69034;49.444;7.758;2024-02-21T01:32:28;10.80;64.70
79571;DHT22;69034;49.444;7.758;2024-02-21T01:36:29;10.70;64.80
79571;DHT22;69034;49.444;7.758;2024-02-21T01:40:29;10.70;64.70
79571;DHT22;69034;49.444;7.758;2024-02-21T01:44:31;10.70;65.00
79571;DHT22;69034;49.444;7.758;2024-02-21T01:48:31;10.80;65.20
79571;DHT22;69034;49.444;7.758;2024-02-21T01:52:33;10.90;65.30
79571;DHT22;69034;49.444;7.758;2024-02-21T01:56:35;11.10;65.30
79571;DHT22;69034;49.444;7.758;2024-02-21T02:00:36;11.20;65.10
79571;DHT22;69034;49.444;7.758;2024-02-21T02:04:38;11.30;65.00
79571;DHT22;69034;49.444;7.758;2024-02-21T02:08:40;11.40;64.90
79571;DHT22;69034;49.444;7.758;2024-02-21T02:12:40;11.40;64.80
79571;DHT22;69034;49.444;7.758;2024-02-21T02:16:41;11.50;64.70
79571;DHT22;69034;49.444;7.758;2024-02-21T02:20:42;11.60;64.70
79571;DHT22;69034;49.444;7.758;2024-02-21T02:24:44;11.60;64.60
79571;DHT22;69034;49.444;7.758;2024-02-21T02:28:45;11.60;64.60
79571;DHT22;69034;49.444;7.758;2024-02-21T02:32:46;11.60;64.60
79571;DHT22;69034;49.444;7.758;2024-02-21T02:36:46;11.60;64.60
79571;DHT22;69034;49.444;7.758;2024-02-21T02:40:49;11.50;64.60
79571;DHT22;69034;49.444;7.758;2024-02-21T02:44:50;11.50;64.50
79571;DHT22;69034;49.444;7.758;2024-02-21T02:48:50;11.30;64.60
79571;DHT22;69034;49.444;7.758;2024-02-21T02:52:51;11.20;64.90
79571;DHT22;69034;49.444;7.758;2024-02-21T02:56:52;11.00;65.00
79571;DHT22;69034;49.444;7.758;2024-02-21T03:00:53;10.90;65.10
79571;DHT22;69034;49.444;7.758;2024-02-21T03:04:53;10.90;65.20
79571;DHT22;69034;49.444;7.758;2024-02-21T03:08:54;10.90;65.20
79571;DHT22;69034;49.444;7.758;2024-02-21T03:12:55;10.80;65.20
79571;DHT22;69034;49.444;7.758;2024-02-21T03:16:56;10.80;65.20
79571;DHT22;69034;49.444;7.758;2024-02-21T03:20:57;10.80;65.30
79571;DHT22;69034;49.444;7.758;2024-02-21T03:24:57;10.80;65.20
79571;DHT22;69034;49.444;7.758;2024-02-21T03:28:58;10.80;65.30
79571;DHT22;69034;49.444;7.758;2024-02-21T03:32:59;10.80;65.30
79571;DHT22;69034;49.444;7.758;2024-02-21T03:36:59;10.80;65.40
79571;DHT22;69034;49.444;7.758;2024-02-21T03:41:00;10.80;65.50
79571;DHT22;69034;49.444;7.758;2024-02-21T03:45:01;10.80;65.40
79571;DHT22;69034;49.444;7.758;2024-02-21T03:49:01;10.80;65.50
79571;DHT22;69034;49.444;7.758;2024-02-21T03:53:02;10.80;65.50
79571;DHT22;69034;49.444;7.758;2024-02-21T03:57:04;10.80;65.60
79571;DHT22;69034;49.444;7.758;2024-02-21T04:01:05;10.80;65.60
79571;DHT22;69034;49.444;7.758;2024-02-21T04:05:05;10.80;65.60
79571;DHT22;69034;49.444;7.758;2024-02-21T04:09:06;10.80;65.70
79571;DHT22;69034;49.444;7.758;2024-02-21T04:13:07;10.80;65.70
79571;DHT22;69034;49.444;7.758;2024-02-21T04:17:08;10.80;65.70
79571;DHT22;69034;49.444;7.758;2024-02-21T04:21:09;10.80;65.70
79571;DHT22;69034;49.444;7.758;2024-02-21T04:25:10;10.80;65.80
79571;DHT22;69034;49.444;7.758;2024-02-21T04:29:11;10.80;65.70
79571;DHT22;69034;49.444;7.758;2024-02-21T04:33:12;10.80;65.70
79571;DHT22;69034;49.444;7.758;2024-02-21T04:37:12;10.80;65.80
79571;DHT22;69034;49.444;7.758;2024-02-21T04:41:13;10.80;65.90
79571;DHT22;69034;49.444;7.758;2024-02-21T04:45:13;10.80;65.80
79571;DHT22;69034;49.444;7.758;2024-02-21T04:49:14;10.80;65.80
79571;DHT22;69034;49.444;7.758;2024-02-21T04:53:15;10.80;65.90
79571;DHT22;69034;49.444;7.758;2024-02-21T04:57:16;10.80;66.00
79571;DHT22;69034;49.444;7.758;2024-02-21T05:01:17;10.80;66.00
79571;DHT22;69034;49.444;7.758;2024-02-21T05:05:18;10.70;66.00
79571;DHT22;69034;49.444;7.758;2024-02-21T05:09:18;10.80;65.90
79571;DHT22;69034;49.444;7.758;2024-02-21T05:13:19;10.70;65.90
79571;DHT22;69034;49.444;7.758;2024-02-21T05:17:19;10.80;65.90
79571;DHT22;69034;49.444;7.758;2024-02-21T05:21:20;10.70;65.90
79571;DHT22;69034;49.444;7.758;2024-02-21T05:25:21;10.70;66.00
79571;DHT22;69034;49.444;7.758;2024-02-21T05:29:21;10.70;66.00
79571;DHT22;69034;49.444;7.758;2024-02-21T05:33:22;10.70;65.90
79571;DHT22;69034;49.444;7.758;2024-02-21T05:37:22;10.70;66.00
79571;DHT22;69034;49.444;7.758;2024-02-21T05:41:23;10.70;66.00
79571;DHT22;69034;49.444;7.758;2024-02-21T05:45:24;10.70;66.00
79571;DHT22;69034;49.444;7.758;2024-02-21T05:49:24;10.70;66.10
79571;DHT22;69034;49.444;7.758;2024-02-21T05:53:25;10.60;66.20
79571;DHT22;69034;49.444;7.758;2024-02-21T05:57:25;10.60;66.20
79571;DHT22;69034;49.444;7.758;2024-02-21T06:01:26;10.60;66.10
79571;DHT22;69034;49.444;7.758;2024-02-21T06:05:26;10.60;66.10
79571;DHT22;69034;49.444;7.758;2024-02-21T06:09:28;10.60;66.20
79571;DHT22;69034;49.444;7.758;2024-02-21T06:13:28;10.60;66.20
79571;DHT22;69034;49.444;7.758;2024-02-21T06:17:29;10.60;66.30
79571;DHT22;69034;49.444;7.758;2024-02-21T06:21:30;10.60;66.30
79571;DHT22;69034;49.444;7.758;2024-02-21T06:25:30;10.60;66.20
79571;DHT22;69034;49.444;7.758;2024-02-21T06:29:31;10.60;66.30
79571;DHT22;69034;49.444;7.758;2024-02-21T06:33:32;10.60;66.20
79571;DHT22;69034;49.444;7.758;2024-02-21T06:37:32;10.60;66.20
79571;DHT22;69034;49.444;7.758;2024-02-21T06:41:33;10.60;66.20
79571;DHT22;69034;49.444;7.758;2024-02-21T06:45:34;10.70;66.30
79571;DHT22;69034;49.444;7.758;2024-02-21T06:49:35;10.70;66.30
79571;DHT22;69034;49.444;7.758;2024-02-21T06:53:37;10.70;66.20
79571;DHT22;69034;49.444;7.758;2024-02-21T06:57:38;10.80;66.40
79571;DHT22;69034;49.444;7.758;2024-02-21T07:01:38;11.00;66.30
79571;DHT22;69034;49.444;7.758;2024-02-21T07:05:39;11.20;66.10
79571;DHT22;69034;49.444;7.758;2024-02-21T07:09:40;11.40;65.70
79571;DHT22;69034;49.444;7.758;2024-02-21T07:13:40;11.60;65.40
79571;DHT22;69034;49.444;7.758;2024-02-21T07:17:41;11.80;65.20
79571;DHT22;69034;49.444;7.758;2024-02-21T07:21:42;11.90;65.00
79571;DHT22;69034;49.444;7.758;2024-02-21T07:25:42;12.10;64.80
79571;DHT22;69034;49.444;7.758;2024-02-21T07:29:43;12.20;64.60
79571;DHT22;69034;49.444;7.758;2024-02-21T07:33:47;12.30;64.30
79571;DHT22;69034;49.444;7.758;2024-02-21T07:37:48;12.50;64.10
79571;DHT22;69034;49.444;7.758;2024-02-21T07:41:48;12.60;64.00
79571;DHT22;69034;49.444;7.758;2024-02-21T07:45:49;12.70;63.80
79571;DHT22;69034;49.444;7.758;2024-02-21T07:49:50;12.80;63.60
79571;DHT22;69034;49.444;7.758;2024-02-21T07:53:51;12.90;63.30
79571;DHT22;69034;49.444;7.758;2024-02-21T07:57:51;13.00;63.10
79571;DHT22;69034;49.444;7.758;2024-02-21T08:01:52;13.10;62.90
79571;DHT22;69034;49.444;7.758;2024-02-21T08:05:56;13.10;62.90
79571;DHT22;69034;49.444;7.758;2024-02-21T08:09:57;13.10;63.00
79571;DHT22;69034;49.444;7.758;2024-02-21T08:13:57;13.10;63.00
79571;DHT22;69034;49.444;7.758;2024-02-21T08:17:58;13.20;62.80
79571;DHT22;69034;49.444;7.758;2024-02-21T08:22:04;13.20;62.70
79571;DHT22;69034;49.444;7.758;2024-02-21T08:26:04;13.30;62.60
79571;DHT22;69034;49.444;7.758;2024-02-21T08:30:06;13.40;62.40
79571;DHT22;69034;49.444;7.758;2024-02-21T08:34:08;13.60;62.20
79571;DHT22;69034;49.444;7.758;2024-02-21T08:38:08;13.70;62.00
79571;DHT22;69034;49.444;7.758;2024-02-21T08:42:09;13.80;61.80
79571;DHT22;69034;49.444;7.758;2024-02-21T08:46:09;14.00;61.80
79571;DHT22;69034;49.444;7.758;2024-02-21T08:50:10;14.10;61.60
79571;DHT22;69034;49.444;7.758;2024-02-21T08:54:11;14.30;61.30
79571;DHT22;69034;49.444;7.758;2024-02-21T08:58:12;14.40;61.00
79571;DHT22;69034;49.444;7.758;2024-02-21T09:02:13;14.60;60.60
79571;DHT22;69034;49.444;7.758;2024-02-21T09:06:14;14.80;60.20
79571;DHT22;69034;49.444;7.758;2024-02-21T09:10:14;15.10;59.90
79571;DHT22;69034;49.444;7.758;2024-02-21T09:14:15;15.30;59.50
79571;DHT22;69034;49.444;7.758;2024-02-21T09:18:16;15.50;59.30
79571;DHT22;69034;49.444;7.758;2024-02-21T09:22:17;15.70;58.90
79571;DHT22;69034;49.444;7.758;2024-02-21T09:26:17;15.80;58.50
79571;DHT22;69034;49.444;7.758;2024-02-21T09:30:18;15.90;58.40
79571;DHT22;69034;49.444;7.758;2024-02-21T09:34:19;16.10;58.20
79571;DHT22;69034;49.444;7.758;2024-02-21T09:38:20;16.20;58.00
79571;DHT22;69034;49.444;7.758;2024-02-21T09:42:21;16.30;57.70
79571;DHT22;69034;49.444;7.758;2024-02-21T09:50:49;16.70;57.10
79571;DHT22;69034;49.444;7.758;2024-02-21T09:54:51;17.00;56.70
79571;DHT22;69034;49.444;7.758;2024-02-21T09:58:53;17.20;56.50
79571;DHT22;69034;49.444;7.758;2024-02-21T10:02:56;17.40;56.20
79571;DHT22;69034;49.444;7.758;2024-02-21T10:06:58;17.60;55.90
79571;DHT22;69034;49.444;7.758;2024-02-21T10:10:59;17.80;55.60
79571;DHT22;69034;49.444;7.758;2024-02-21T10:19:02;18.00;55.30
79571;DHT22;69034;49.444;7.758;2024-02-21T10:23:04;18.10;55.10
79571;DHT22;69034;49.444;7.758;2024-02-21T10:27:09;18.30;54.90
79571;DHT22;69034;49.444;7.758;2024-02-21T10:31:24;18.50;54.70
79571;DHT22;69034;49.444;7.758;2024-02-21T10:35:32;18.70;54.20
79571;DHT22;69034;49.444;7.758;2024-02-21T10:39:42;19.00;53.90
79571;DHT22;69034;49.444;7.758;2024-02-21T10:43:49;19.10;53.30
79571;DHT22;69034;49.444;7.758;2024-02-21T10:47:53;19.20;53.10
79571;DHT22;69034;49.444;7.758;2024-02-21T10:56:31;19.20;52.80
79571;DHT22;69034;49.444;7.758;2024-02-21T11:00:36;19.20;52.40
79571;DHT22;69034;49.444;7.758;2024-02-21T11:04:37;19.20;52.30
79571;DHT22;69034;49.444;7.758;2024-02-21T11:08:39;19.30;52.10
79571;DHT22;69034;49.444;7.758;2024-02-21T11:12:39;19.50;51.70
79571;DHT22;69034;49.444;7.758;2024-02-21T11:16:41;19.60;51.60
79571;DHT22;69034;49.444;7.758;2024-02-21T11:20:50;19.80;51.40
79571;DHT22;69034;49.444;7.758;2024-02-21T11:24:51;19.90;51.00
79571;DHT22;69034;49.444;7.758;2024-02-21T11:28:59;20.00;50.90
79571;DHT22;69034;49.444;7.758;2024-02-21T11:33:05;20.10;50.50
79571;DHT22;69034;49.444;7.758;2024-02-21T11:37:14;20.20;50.40
79571;DHT22;69034;49.444;7.758;2024-02-21T11:41:16;20.30;50.20
79571;DHT22;69034;49.444;7.758;2024-02-21T11:45:17;20.40;50.30
79571;DHT22;69034;49.444;7.758;2024-02-21T11:49:18;20.40;50.10
79571;DHT22;69034;49.444;7.758;2024-02-21T11:53:20;20.40;50.00
79571;DHT22;69034;49.444;7.758;2024-02-21T11:57:21;20.50;49.80
79571;DHT22;69034;49.444;7.758;2024-02-21T12:01:21;20.70;49.70
79571;DHT22;69034;49.444;7.758;2024-02-21T12:05:22;20.80;49.60
79571;DHT22;69034;49.444;7.758;2024-02-21T12:09:23;20.90;49.40
79571;DHT22;69034;49.444;7.758;2024-02-21T12:13:24;21.00;49.00
79571;DHT22;69034;49.444;7.758;2024-02-21T12:17:25;21.00;49.00
79571;DHT22;69034;49.444;7.758;2024-02-21T12:21:27;20.90;48.80
79571;DHT22;69034;49.444;7.758;2024-02-21T12:25:29;20.70;49.00
79571;DHT22;69034;49.444;7.758;2024-02-21T12:29:30;20.50;48.90
79571;DHT22;69034;49.444;7.758;2024-02-21T12:33:31;20.30;49.20
79571;DHT22;69034;49.444;7.758;2024-02-21T12:37:32;20.30;49.30
79571;DHT22;69034;49.444;7.758;2024-02-21T12:41:33;20.30;49.40
79571;DHT22;69034;49.444;7.758;2024-02-21T12:45:35;20.20;49.30
79571;DHT22;69034;49.444;7.758;2024-02-21T12:49:36;20.30;49.00
79571;DHT22;69034;49.444;7.758;2024-02-21T12:53:37;20.30;48.90
79571;DHT22;69034;49.444;7.758;2024-02-21T12:57:37;20.30;48.70
79571;DHT22;69034;49.444;7.758;2024-02-21T13:01:38;20.30;48.90
79571;DHT22;69034;49.444;7.758;2024-02-21T13:05:38;20.20;49.00
79571;DHT22;69034;49.444;7.758;2024-02-21T13:09:39;20.10;49.20
79571;DHT22;69034;49.444;7.758;2024-02-21T13:13:40;20.10;49.10
79571;DHT22;69034;49.444;7.758;2024-02-21T13:17:41;20.00;49.20
79571;DHT22;69034;49.444;7.758;2024-02-21T13:21:42;20.00;49.10
79571;DHT22;69034;49.444;7.758;2024-02-21T13:25:43;20.00;49.20
79571;DHT22;69034;49.444;7.758;2024-02-21T13:29:45;20.00;49.20
79571;DHT22;69034;49.444;7.758;2024-02-21T13:33:46;20.00;49.20
79571;DHT22;69034;49.444;7.758;2024-02-21T13:37:47;20.00;49.30
79571;DHT22;69034;49.444;7.758;2024-02-21T13:41:48;20.00;49.30
79571;DHT22;69034;49.444;7.758;2024-02-21T13:45:59;19.90;49.20
79571;DHT22;69034;49.444;7.758;2024-02-21T13:50:00;19.90;49.00
79571;DHT22;69034;49.444;7.758;2024-02-21T13:54:00;19.90;49.20
79571;DHT22;69034;49.444;7.758;2024-02-21T13:58:01;19.90;49.10
79571;DHT22;69034;49.444;7.758;2024-02-21T14:02:03;19.90;48.80
79571;DHT22;69034;49.444;7.758;2024-02-21T14:06:04;19.90;48.90
79571;DHT22;69034;49.444;7.758;2024-02-21T14:10:06;19.90;48.90
79571;DHT22;69034;49.444;7.758;2024-02-21T14:14:07;19.80;48.90
79571;DHT22;69034;49.444;7.758;2024-02-21T14:18:07;19.70;49.00
79571;DHT22;69034;49.444;7.758;2024-02-21T14:22:09;19.70;48.80
79571;DHT22;69034;49.444;7.758;2024-02-21T14:26:11;19.70;48.70
79571;DHT22;69034;49.444;7.758;2024-02-21T14:30:12;19.70;48.60
79571;DHT22;69034;49.444;7.758;2024-02-21T14:34:13;19.70;48.50
79571;DHT22;69034;49.444;7.758;2024-02-21T14:38:13;19.70;48.40
79571;DHT22;69034;49.444;7.758;2024-02-21T14:42:14;19.70;48.50
79571;DHT22;69034;49.444;7.758;2024-02-21T14:46:15;19.60;48.70
79571;DHT22;69034;49.444;7.758;2024-02-21T14:50:15;19.50;49.00
79571;DHT22;69034;49.444;7.758;2024-02-21T14:54:16;19.40;49.30
79571;DHT22;69034;49.444;7.758;2024-02-21T14:58:17;19.30;49.40
79571;DHT22;69034;49.444;7.758;2024-02-21T15:02:21;19.20;49.40
79571;DHT22;69034;49.444;7.758;2024-02-21T15:06:22;19.10;49.50
79571;DHT22;69034;49.444;7.758;2024-02-21T15:10:23;19.00;49.70
79571;DHT22;69034;49.444;7.758;2024-02-21T15:14:24;18.90;49.80
79571;DHT22;69034;49.444;7.758;2024-02-21T15:18:24;18.80;49.90
79571;DHT22;69034;49.444;7.758;2024-02-21T15:22:25;18.70;50.00
79571;DHT22;69034;49.444;7.758;2024-02-21T15:26:26;18.50;50.00
79571;DHT22;69034;49.444;7.758;2024-02-21T15:30:26;18.40;50.10
79571;DHT22;69034;49.444;7.758;2024-02-21T15:34:32;18.30;50.30
79571;DHT22;69034;49.444;7.758;2024-02-21T15:38:32;18.20;50.50
79571;DHT22;69034;49.444;7.758;2024-02-21T15:42:33;18.00;50.70
79571;DHT22;69034;49.444;7.758;2024-02-21T15:46:33;17.80;51.00
79571;DHT22;69034;49.444;7.758;2024-02-21T15:50:36;17.70;51.10
79571;DHT22;69034;49.444;7.758;2024-02-21T15:54:38;17.50;51.30
79571;DHT22;69034;49.444;7.758;2024-02-21T15:58:40;17.40;51.60
79571;DHT22;69034;49.444;7.758;2024-02-21T16:02:40;17.20;51.70
79571;DHT22;69034;49.444;7.758;2024-02-21T16:06:44;17.10;52.00
79571;DHT22;69034;49.444;7.758;2024-02-21T16:10:46;16.90;52.00
79571;DHT22;69034;49.444;7.758;2024-02-21T16:14:47;16.80;52.20
79571;DHT22;69034;49.444;7.758;2024-02-21T16:18:48;16.70;52.40
79571;DHT22;69034;49.444;7.758;2024-02-21T16:23:02;16.60;52.60
79571;DHT22;69034;49.444;7.758;2024-02-21T16:27:05;16.40;52.80
79571;DHT22;69034;49.444;7.758;2024-02-21T16:31:11;16.30;52.90
79571;DHT22;69034;49.444;7.758;2024-02-21T16:35:12;16.10;53.10
79571;DHT22;69034;49.444;7.758;2024-02-21T16:39:12;16.00;53.30
79571;DHT22;69034;49.444;7.758;2024-02-21T16:43:13;15.80;53.50
79571;DHT22;69034;49.444;7.758;2024-02-21T16:47:14;15.70;53.60
79571;DHT22;69034;49.444;7.758;2024-02-21T16:51:14;15.50;53.80
79571;DHT22;69034;49.444;7.758;2024-02-21T16:55:16;15.40;53.90
79571;DHT22;69034;49.444;7.758;2024-02-21T16:59:20;15.30;54.20
79571;DHT22;69034;49.444;7.758;2024-02-21T17:03:21;15.20;54.20
79571;DHT22;69034;49.444;7.758;2024-02-21T17:07:22;15.00;54.20
79571;DHT22;69034;49.444;7.758;2024-02-21T17:11:23;14.90;54.30
79571;DHT22;69034;49.444;7.758;2024-02-21T17:15:23;14.80;54.30
79571;DHT22;69034;49.444;7.758;2024-02-21T17:19:24;14.70;54.30
79571;DHT22;69034;49.444;7.758;2024-02-21T17:23:25;14.90;54.60
79571;DHT22;69034;49.444;7.758;2024-02-21T17:27:25;14.90;54.80
79571;DHT22;69034;49.444;7.758;2024-02-21T17:31:26;14.70;55.10
79571;DHT22;69034;49.444;7.758;2024-02-21T17:35:28;14.60;55.40
79571;DHT22;69034;49.444;7.758;2024-02-21T17:39:28;14.50;55.70
79571;DHT22;69034;49.444;7.758;2024-02-21T17:43:29;14.40;55.80
79571;DHT22;69034;49.444;7.758;2024-02-21T17:47:33;14.30;55.80
79571;DHT22;69034;49.444;7.758;2024-02-21T17:51:34;14.30;56.10
79571;DHT22;69034;49.444;7.758;2024-02-21T17:55:35;14.40;56.10
79571;DHT22;69034;49.444;7.758;2024-02-21T17:59:41;14.50;56.00
79571;DHT22;69034;49.444;7.758;2024-02-21T18:03:42;14.60;55.90
79571;DHT22;69034;49.444;7.758;2024-02-21T18:07:43;14.60;55.90
79571;DHT22;69034;49.444;7.758;2024-02-21T18:11:45;14.70;55.90
79571;DHT22;69034;49.444;7.758;2024-02-21T18:15:46;14.70;55.90
79571;DHT22;69034;49.444;7.758;2024-02-21T18:19:46;14.70;55.80
79571;DHT22;69034;49.444;7.758;2024-02-21T18:23:47;14.70;55.80
79571;DHT22;69034;49.444;7.758;2024-02-21T18:27:49;14.70;55.90
79571;DHT22;69034;49.444;7.758;2024-02-21T18:31:52;14.70;55.90
79571;DHT22;69034;49.444;7.758;2024-02-21T18:35:52;14.70;55.90
79571;DHT22;69034;49.444;7.758;2024-02-21T18:39:53;14.60;55.80
79571;DHT22;69034;49.444;7.758;2024-02-21T18:43:54;14.60;55.80
79571;DHT22;69034;49.444;7.758;2024-02-21T18:47:55;14.60;55.80
79571;DHT22;69034;49.444;7.758;2024-02-21T18:51:56;14.50;55.80
79571;DHT22;69034;49.444;7.758;2024-02-21T18:55:57;14.40;55.80
79571;DHT22;69034;49.444;7.758;2024-02-21T18:59:59;14.20;55.90
79571;DHT22;69034;49.444;7.758;2024-02-21T19:04:01;14.00;56.00
79571;DHT22;69034;49.444;7.758;2024-02-21T19:08:02;14.00;56.10
79571;DHT22;69034;49.444;7.758;2024-02-21T19:12:04;13.90;56.30
79571;DHT22;69034;49.444;7.758;2024-02-21T19:16:07;13.80;56.20
79571;DHT22;69034;49.444;7.758;2024-02-21T19:20:08;13.70;56.20
79571;DHT22;69034;49.444;7.758;2024-02-21T19:24:12;13.70;56.30
79571;DHT22;69034;49.444;7.758;2024-02-21T19:28:12;13.60;56.40
79571;DHT22;69034;49.444;7.758;2024-02-21T19:32:13;13.50;56.50
79571;DHT22;69034;49.444;7.758;2024-02-21T19:36:15;13.40;56.70
79571;DHT22;69034;49.444;7.758;2024-02-21T19:40:16;13.30;56.70
79571;DHT22;69034;49.444;7.758;2024-02-21T19:44:17;13.30;56.80
79571;DHT22;69034;49.444;7.758;2024-02-21T19:48:22;13.20;56.90
79571;DHT22;69034;49.444;7.758;2024-02-21T19:52:24;13.10;57.00
79571;DHT22;69034;49.444;7.758;2024-02-21T19:56:25;13.10;57.20
79571;DHT22;69034;49.444;7.758;2024-02-21T20:00:25;13.00;57.50
79571;DHT22;69034;49.444;7.758;2024-02-21T20:04:26;12.90;57.70
79571;DHT22;69034;49.444;7.758;2024-02-21T20:08:28;12.90;57.90
79571;DHT22;69034;49.444;7.758;2024-02-21T20:12:28;12.80;58.10
79571;DHT22;69034;49.444;7.758;2024-02-21T20:16:29;13.00;58.80
79571;DHT22;69034;49.444;7.758;2024-02-21T20:20:30;13.00;58.60
79571;DHT22;69034;49.444;7.758;2024-02-21T20:24:34;12.80;58.90
79571;DHT22;69034;49.444;7.758;2024-02-21T20:28:36;12.70;59.00
79571;DHT22;69034;49.444;7.758;2024-02-21T20:32:36;12.70;59.20
79571;DHT22;69034;49.444;7.758;2024-02-21T20:36:37;12.60;59.20
79571;DHT22;69034;49.444;7.758;2024-02-21T20:40:39;12.50;59.30
79571;DHT22;69034;49.444;7.758;2024-02-21T20:44:40;12.50;59.40
79571;DHT22;69034;49.444;7.758;2024-02-21T20:48:40;12.40;59.80
79571;DHT22;69034;49.444;7.758;2024-02-21T20:52:41;12.40;59.90
79571;DHT22;69034;49.444;7.758;2024-02-21T20:56:42;12.60;60.60
79571;DHT22;69034;49.444;7.758;2024-02-21T21:00:43;12.70;60.50
79571;DHT22;69034;49.444;7.758;2024-02-21T21:04:44;12.50;60.70
79571;DHT22;69034;49.444;7.758;2024-02-21T21:08:45;12.40;61.00
79571;DHT22;69034;49.444;7.758;2024-02-21T21:12:46;12.40;61.10
79571;DHT22;69034;49.444;7.758;2024-02-21T21:16:47;12.30;61.30
79571;DHT22;69034;49.444;7.758;2024-02-21T21:20:47;12.20;61.30
79571;DHT22;69034;49.444;7.758;2024-02-21T21:24:48;12.20;61.70
79571;DHT22;69034;49.444;7.758;2024-02-21T21:28:49;12.30;62.50
79571;DHT22;69034;49.444;7.758;2024-02-21T21:32:49;12.40;62.20
79571;DHT22;69034;49.444;7.758;2024-02-21T21:36:53;12.30;62.20
79571;DHT22;69034;49.444;7.758;2024-02-21T21:40:53;12.20;62.40
79571;DHT22;69034;49.444;7.758;2024-02-21T21:44:54;12.30;62.80
79571;DHT22;69034;49.444;7.758;2024-02-21T21:48:54;12.40;62.80
79571;DHT22;69034;49.444;7.758;2024-02-21T21:52:55;12.50;62.80
79571;DHT22;69034;49.444;7.758;2024-02-21T21:56:56;12.60;62.70
79571;DHT22;69034;49.444;7.758;2024-02-21T22:00:56;12.60;62.70
79571;DHT22;69034;49.444;7.758;2024-02-21T22:04:57;12.70;62.70
79571;DHT22;69034;49.444;7.758;2024-02-21T22:08:58;12.70;62.60
79571;DHT22;69034;49.444;7.758;2024-02-21T22:12:58;12.70;62.60
79571;DHT22;69034;49.444;7.758;2024-02-21T22:17:00;12.70;62.70
79571;DHT22;69034;49.444;7.758;2024-02-21T22:21:02;12.70;62.70
79571;DHT22;69034;49.444;7.758;2024-02-21T22:25:03;12.70;62.80
79571;DHT22;69034;49.444;7.758;2024-02-21T22:29:04;12.80;62.80
79571;DHT22;69034;49.444;7.758;2024-02-21T22:33:04;12.80;62.90
79571;DHT22;69034;49.444;7.758;2024-02-21T22:37:05;12.80;63.20
79571;DHT22;69034;49.444;7.758;2024-02-21T22:41:06;12.60;63.20
79571;DHT22;69034;49.444;7.758;2024-02-21T22:45:07;12.50;63.30
79571;DHT22;69034;49.444;7.758;2024-02-21T22:49:08;12.30;63.60
79571;DHT22;69034;49.444;7.758;2024-02-21T22:53:08;12.20;63.80
79571;DHT22;69034;49.444;7.758;2024-02-21T22:57:09;12.10;64.10
79571;DHT22;69034;49.444;7.758;2024-02-21T23:01:11;12.00;64.10
79571;DHT22;69034;49.444;7.758;2024-02-21T23:05:12;12.00;64.20
79571;DHT22;69034;49.444;7.758;2024-02-21T23:09:13;11.90;64.40
79571;DHT22;69034;49.444;7.758;2024-02-21T23:13:15;11.90;64.80
79571;DHT22;69034;49.444;7.758;2024-02-21T23:17:16;11.90;65.00
79571;DHT22;69034;49.444;7.758;2024-02-21T23:21:17;11.80;65.10
79571;DHT22;69034;49.444;7.758;2024-02-21T23:25:18;11.80;65.30
79571;DHT22;69034;49.444;7.758;2024-02-21T23:29:21;11.80;65.50
79571;DHT22;69034;49.444;7.758;2024-02-21T23:33:22;11.80;65.50
79571;DHT22;69034;49.444;7.758;2024-02-21T23:37:23;11.70;65.60
79571;DHT22;69034;49.444;7.758;2024-02-21T23:41:23;11.70;66.00
79571;DHT22;69034;49.444;7.758;2024-02-21T23:45:24;11.70;66.00
79571;DHT22;69034;49.444;7.758;2024-02-21T23:49:25;11.70;66.00
79571;DHT22;69034;49.444;7.758;2024-02-21T23:53:26;11.70;66.00
79571;DHT22;69034;49.444;7.758;2024-02-21T23:57:27;11.70;66.20
